Time;durP1;ratioP1;P1;durP2;ratioP2;P2;SDS_P1;SDS_P2;PMS_P1;PMS_P2;Temp;Humidity;BMP_temperature;BMP_pressure;BME280_temperature;BME280_humidity;BME280_pressure;Samples;Min_cycle;Max_cycle;Signal;HPM_P1;HPM_P2
2021/03/02 13:56:00;;;;;;;67.22;43.75;;;16.80;46.60;;;;;;6229937;22;20387;-95
2021/03/02 13:58:48;;;;;;;69.88;44.10;;;16.90;46.50;;;;;;6228714;22;20395;-95
2021/03/02 14:01:48;;;;;;;68.97;43.10;;;17.40;45.50;;;;;;6205666;23;20384;-96
2021/03/02 14:04:33;;;;;;;70.30;45.13;;;17.30;45.50;;;;;;6199747;23;20372;-96
2021/03/02 14:07:16;;;;;;;72.63;44.95;;;16.80;46.50;;;;;;6202425;22;20390;-96
2021/03/02 14:09:46;;;;;;;69.90;44.63;;;16.30;47.30;;;;;;6281303;22;20426;-96
2021/03/02 14:12:23;;;;;;;74.25;47.38;;;15.60;48.80;;;;;;6291343;22;20383;-96
2021/03/02 14:14:56;;;;;;;75.88;47.30;;;15.20;50.70;;;;;;6320756;22;20376;-96
2021/03/02 14:17:29;;;;;;;76.03;46.60;;;15.20;51.10;;;;;;6320450;22;20421;-96
2021/03/02 14:20:20;;;;;;;77.07;48.85;;;15.40;50.60;;;;;;6321478;22;20459;-96
2021/03/02 14:22:59;;;;;;;73.78;46.88;;;15.30;49.80;;;;;;6318273;22;20452;-96
2021/03/02 14:25:38;;;;;;;75.47;47.30;;;15.20;51.80;;;;;;6279600;22;20392;-96
2021/03/02 14:28:08;;;;;;;73.13;48.00;;;15.70;49.90;;;;;;6252584;22;20388;-96
2021/03/02 14:30:51;;;;;;;74.88;47.80;;;15.50;49.70;;;;;;6264842;22;20402;-96
2021/03/02 14:33:44;;;;;;;73.78;47.03;;;15.80;49.30;;;;;;6277413;22;20525;-96
2021/03/02 14:36:21;;;;;;;74.50;48.10;;;16.00;47.70;;;;;;6292415;22;20438;-96
2021/03/02 14:38:56;;;;;;;75.75;48.08;;;15.90;49.20;;;;;;6289686;22;20453;-96
2021/03/02 14:41:54;;;;;;;73.15;48.17;;;15.80;49.60;;;;;;6291714;22;20450;-96
2021/03/02 14:44:41;;;;;;;73.78;48.78;;;16.10;49.10;;;;;;6304750;22;20402;-96
2021/03/02 14:47:32;;;;;;;73.25;47.40;;;16.10;48.30;;;;;;6323549;22;20418;-95
2021/03/02 14:53:39;;;;;;;75.53;47.85;;;16.30;48.20;;;;;;6253397;22;20448;-96
2021/03/02 14:56:38;;;;;;;71.20;47.20;;;16.30;47.10;;;;;;6298689;22;20417;-96
2021/03/02 14:59:36;;;;;;;74.65;47.67;;;15.80;48.50;;;;;;6296081;22;20386;-96
2021/03/02 15:02:29;;;;;;;68.80;48.07;;;15.60;49.00;;;;;;6296026;22;20382;-96
2021/03/02 15:05:03;;;;;;;69.45;46.53;;;15.70;49.70;;;;;;6264050;22;20388;-96
2021/03/02 15:07:30;;;;;;;69.28;47.08;;;15.70;48.50;;;;;;6261963;22;20384;-96
2021/03/02 15:10:07;;;;;;;67.60;45.70;;;15.40;49.90;;;;;;6265230;22;20499;-96
2021/03/02 15:12:39;;;;;;;68.75;45.92;;;15.30;49.80;;;;;;6264729;22;20376;-96
2021/03/02 15:15:15;;;;;;;72.78;45.65;;;15.20;50.30;;;;;;6265398;22;20384;-96
2021/03/02 15:17:44;;;;;;;76.03;46.15;;;15.20;50.70;;;;;;6262111;22;20385;-96
2021/03/02 15:20:20;;;;;;;69.28;44.55;;;15.40;50.10;;;;;;6265383;22;20365;-96
2021/03/02 15:23:07;;;;;;;67.38;44.60;;;15.70;49.90;;;;;;6260764;22;20434;-96
2021/03/02 15:28:59;;;;;;;65.03;43.38;;;16.20;48.30;;;;;;6289244;22;20392;-96
2021/03/02 15:31:43;;;;;;;62.47;42.65;;;16.30;48.30;;;;;;6294075;22;20402;-96
2021/03/02 15:34:17;;;;;;;64.32;42.38;;;16.60;47.40;;;;;;6314518;22;20397;-96
2021/03/02 15:36:55;;;;;;;62.10;42.47;;;16.70;47.00;;;;;;6300321;22;20382;-96
2021/03/02 15:39:24;;;;;;;57.75;40.30;;;16.90;46.70;;;;;;6319408;22;20401;-95
2021/03/02 15:42:11;;;;;;;62.05;41.75;;;17.00;46.50;;;;;;6323365;22;20417;-95
2021/03/02 15:44:47;;;;;;;59.95;41.10;;;16.80;46.60;;;;;;6305555;22;20370;-96
2021/03/02 15:47:25;;;;;;;61.17;40.25;;;16.60;47.30;;;;;;6309764;22;20402;-96
2021/03/02 15:49:59;;;;;;;60.92;39.85;;;16.20;48.20;;;;;;6314510;22;20388;-96
2021/03/02 15:52:29;;;;;;;61.10;40.23;;;15.90;49.50;;;;;;6321309;22;20386;-96
2021/03/02 15:55:26;;;;;;;61.72;40.28;;;15.70;49.50;;;;;;6321982;22;20453;-96
2021/03/02 16:00:51;;;;;;;63.63;40.53;;;15.20;50.30;;;;;;6289403;22;20433;-95
2021/03/02 16:03:33;;;;;;;65.60;41.85;;;14.70;52.20;;;;;;6319821;22;20363;-94
2021/03/02 16:06:24;;;;;;;62.58;41.75;;;14.50;52.30;;;;;;6333648;22;20377;-94
2021/03/02 16:09:02;;;;;;;64.95;41.35;;;14.20;52.00;;;;;;6333131;22;20382;-94
2021/03/02 16:13:59;;;;;;;67.77;42.00;;;14.00;53.70;;;;;;6318635;22;20394;-95
2021/03/02 16:16:26;;;;;;;66.07;43.08;;;13.90;54.40;;;;;;6310273;22;20413;-94
2021/03/02 16:18:56;;;;;;;64.10;41.47;;;13.40;54.90;;;;;;6312028;22;20389;-96
2021/03/02 16:21:37;;;;;;;64.00;40.78;;;13.20;55.90;;;;;;6311204;22;20390;-95
2021/03/02 16:24:18;;;;;;;64.32;40.70;;;13.00;56.10;;;;;;6308098;22;20390;-95
2021/03/02 16:26:46;;;;;;;64.63;41.25;;;12.60;57.10;;;;;;6310410;22;20394;-96
2021/03/02 16:29:19;;;;;;;63.60;41.55;;;12.20;57.60;;;;;;6310687;22;20379;-96
2021/03/02 16:32:27;;;;;;;;;;;;;;;;;;;;;
2021/03/02 19:02:43;;;;;;;63.83;35.38;;;2.60;96.30;;;;;;6251490;22;20367;-96
2021/03/02 19:17:37;;;;;;;78.22;39.58;;;2.00;97.90;;;;;;6234889;22;20390;-96
2021/03/02 20:05:38;;;;;;;78.07;40.80;;;2.10;99.10;;;;;;6240386;22;20392;-96
2021/03/02 21:34:11;;;;;;;50.22;29.30;;;2.10;98.10;;;;;;6301267;22;20481;-95
2021/03/02 22:58:19;;;;;;;41.07;22.40;;;1.30;95.10;;;;;;6288251;22;20383;-96
2021/03/02 23:02:02;;;;;;;;;;;;;;;;;;;;;
2021/03/02 23:25:04;;;;;;;;;;;;;;;;;;;;;
2021/03/02 23:28:26;;;;;;;;;;;;;;;;;;;;;
2021/03/02 23:31:56;;;;;;;54.50;29.63;;;1.30;96.10;;;;;;6012856;23;20415;-96
